KMFR

Medford

Airport
ICAO code
KMFR
Summary
ICAO Region
NAM
ICAO Territory
Location

Medford, Jackson County, Oregon,

Coordinates
42° 22' 27" N , 122° 52' 23" W
KCC
Csa
Airport BS
Non Avian Wildlife Hazards to Aircraft
Metar
Observation
KMFR 170053Z 27006KT 10SM CLR 37/12 A2982 RMK AO2 SLP084 T03670122 $
Station
Medford, Rogue Valley International Airport
Date/Time
2022-08-17 00:53:00
Wind direction
270°
Wind speed
06 kts
Lowest cloud amount
n/a
Temperature
36.7°C
Dew point
12.2°C
Humidity
23%
Weather condition
n/a

Description

Rogue Valley International-Medford Airport is a public airport located 5 km north of downtown Medford in Jackson County, Oregon, USA. In addition to Jackson County, the airport serves seven nearby counties in southwest Oregon.

Climatology

Dry-summer subtropical ”Mediterranean" climate (Köppen climate classification Csa) - characterized by hot, dry summers and mild winters. During the summer, subtropical high pressure cells dominate, making rainfall unlikely except for the occasional thunderstorm. In the winter, periodic storms bring rain (snow at higher elevations).

Runways

Designator Length Width Surface Rops
9/27 956 30 ASP Yes/Yes
14/32 2682 46 ASP Yes/Yes

Airport map

Aerial View

SKYbrary Partners:

Safety knowledge contributed by: